Time;durP1;ratioP1;P1;durP2;ratioP2;P2;SDS_P1;SDS_P2;PMS_P1;PMS_P2;Temp;Humidity;BMP_temperature;BMP_pressure;BME280_temperature;BME280_humidity;BME280_pressure;Samples;Min_cycle;Max_cycle;Signal;HPM_P1;HPM_P2
2022/09/02 00:00:48;;;;;;;14.68;13.18;;;;;;;21.19;64.00;94608.66;5011366;28;20223;-71
2022/09/02 00:03:14;;;;;;;13.25;12.23;;;;;;;21.20;64.03;94607.59;5008250;28;20288;-72
2022/09/02 00:05:41;;;;;;;13.15;12.05;;;;;;;21.15;64.05;94611.78;5006951;28;20270;-72
2022/09/02 00:08:07;;;;;;;13.20;11.85;;;;;;;21.14;64.15;94603.97;5009879;28;20207;-72
2022/09/02 00:10:37;;;;;;;13.23;11.68;;;;;;;21.10;64.36;94603.63;5008293;28;20215;-72
2022/09/02 00:13:04;;;;;;;15.07;12.75;;;;;;;21.15;64.37;94601.09;5007424;28;20218;-72
2022/09/02 00:15:30;;;;;;;14.63;13.18;;;;;;;21.15;64.52;94606.44;5013585;28;20232;-72
2022/09/02 00:17:56;;;;;;;14.65;13.05;;;;;;;21.09;64.66;94604.69;5008439;28;20219;-71
2022/09/02 00:20:22;;;;;;;14.40;13.05;;;;;;;21.08;64.65;94603.03;5005462;28;20945;-72
2022/09/02 00:22:48;;;;;;;15.07;13.63;;;;;;;20.98;64.97;94600.09;5023221;28;20207;-73
2022/09/02 00:25:13;;;;;;;14.85;13.35;;;;;;;21.06;64.92;94605.13;5011113;28;20278;-71
2022/09/02 00:27:38;;;;;;;14.13;12.77;;;;;;;21.06;65.06;94607.81;5008835;28;20218;-70
2022/09/02 00:30:05;;;;;;;14.35;13.10;;;;;;;20.99;64.97;94615.09;5000616;28;20229;-72
2022/09/02 00:32:31;;;;;;;13.68;12.45;;;;;;;21.05;64.80;94622.19;5001586;28;20227;-72
2022/09/02 00:34:57;;;;;;;15.27;13.93;;;;;;;21.12;64.51;94627.47;5008844;28;20215;-72
2022/09/02 00:37:24;;;;;;;15.57;14.00;;;;;;;21.05;64.69;94622.19;5008632;28;20206;-72
2022/09/02 00:39:52;;;;;;;14.55;13.18;;;;;;;21.04;64.68;94623.25;5009836;28;20218;-71
2022/09/02 00:42:18;;;;;;;15.60;13.57;;;;;;;21.06;64.70;94628.34;5008877;28;20727;-72
2022/09/02 00:44:44;;;;;;;14.45;12.95;;;;;;;21.00;64.79;94624.72;5005714;28;20397;-72
2022/09/02 00:47:10;;;;;;;15.60;14.25;;;;;;;20.90;65.24;94629.78;5008335;28;20553;-72
2022/09/02 00:49:39;;;;;;;14.85;13.55;;;;;;;20.96;64.78;94623.56;5011500;28;20206;-71
2022/09/02 00:52:16;;;;;;;15.57;14.27;;;;;;;20.97;64.52;94629.72;5007060;28;20231;-72
2022/09/02 00:54:51;;;;;;;14.55;13.25;;;;;;;20.87;64.96;94627.56;5006757;28;20242;-71
2022/09/02 00:57:21;;;;;;;14.98;13.40;;;;;;;20.93;64.63;94627.50;5005215;28;20321;-72
2022/09/02 01:00:01;;;;;;;15.30;13.80;;;;;;;21.02;64.37;94630.69;5008416;28;20707;-72
2022/09/02 01:02:30;;;;;;;15.75;14.10;;;;;;;21.08;64.37;94631.63;5011072;28;20218;-72
2022/09/02 01:04:59;;;;;;;14.90;13.38;;;;;;;21.03;64.27;94636.84;5007979;28;20723;-71
2022/09/02 01:07:29;;;;;;;14.60;13.30;;;;;;;20.97;63.94;94630.53;5008043;28;20215;-72
2022/09/02 01:09:56;;;;;;;15.85;14.40;;;;;;;20.99;63.70;94628.47;4998783;28;20230;-72
2022/09/02 01:12:23;;;;;;;15.45;14.15;;;;;;;21.01;63.52;94629.06;5006995;28;20245;-72
2022/09/02 01:14:49;;;;;;;15.63;14.13;;;;;;;20.98;63.33;94623.31;5004970;28;20223;-72
2022/09/02 01:17:18;;;;;;;15.15;13.85;;;;;;;21.02;63.40;94625.34;5005818;28;20211;-72
2022/09/02 01:19:48;;;;;;;15.48;14.18;;;;;;;20.94;63.85;94625.66;5005946;28;20237;-72
2022/09/02 01:22:20;;;;;;;16.48;14.75;;;;;;;20.98;64.14;94632.16;5007466;28;20230;-71
2022/09/02 01:24:46;;;;;;;15.80;14.30;;;;;;;20.88;64.38;94630.03;5003313;28;20220;-72
2022/09/02 01:27:19;;;;;;;15.30;14.10;;;;;;;20.75;65.07;94635.53;5007842;28;20306;-72
2022/09/02 01:29:49;;;;;;;16.20;14.55;;;;;;;20.84;64.98;94641.38;5008010;28;20228;-72
2022/09/02 01:32:15;;;;;;;14.63;13.32;;;;;;;20.83;65.07;94637.91;4999261;28;20212;-72
2022/09/02 01:34:40;;;;;;;13.65;12.15;;;;;;;20.88;64.59;94631.91;5006325;28;20226;-71
2022/09/02 01:37:06;;;;;;;13.77;12.48;;;;;;;20.77;64.73;94632.63;5006914;28;20219;-72
2022/09/02 01:39:32;;;;;;;13.73;12.43;;;;;;;20.74;65.27;94614.38;5002599;28;20250;-73
2022/09/02 01:41:57;;;;;;;13.27;12.00;;;;;;;20.77;64.80;94612.09;5009723;28;20690;-73
2022/09/02 01:44:25;;;;;;;12.48;11.27;;;;;;;20.77;64.65;94608.59;5011897;28;20227;-73
2022/09/02 01:46:51;;;;;;;13.45;12.35;;;;;;;20.74;64.87;94603.69;5011328;28;20302;-73
2022/09/02 01:49:16;;;;;;;12.93;11.88;;;;;;;20.85;64.26;94587.75;5013633;28;21075;-73
2022/09/02 01:51:42;;;;;;;12.35;11.15;;;;;;;20.77;64.25;94589.88;5008124;28;20309;-73
2022/09/02 01:54:07;;;;;;;10.80;9.80;;;;;;;20.71;64.36;94583.59;5010190;28;20307;-73
2022/09/02 01:56:33;;;;;;;9.82;8.93;;;;;;;20.69;63.93;94577.69;5012331;28;20280;-73
2022/09/02 01:58:58;;;;;;;8.63;7.82;;;;;;;20.80;63.26;94571.56;5003811;28;20210;-71
2022/09/02 02:01:24;;;;;;;7.78;7.18;;;;;;;20.80;62.73;94574.22;5010503;28;20218;-74
2022/09/02 02:03:50;;;;;;;7.03;6.50;;;;;;;20.79;62.32;94572.59;5008768;28;20595;-73
2022/09/02 02:06:16;;;;;;;6.45;5.95;;;;;;;20.70;61.86;94564.06;5011407;28;20246;-73
2022/09/02 02:08:43;;;;;;;5.82;5.43;;;;;;;20.67;61.58;94567.19;5008152;28;20228;-73
2022/09/02 02:11:08;;;;;;;5.63;5.13;;;;;;;20.70;61.46;94572.09;4994574;28;20211;-73
2022/09/02 02:13:35;;;;;;;5.20;4.80;;;;;;;20.72;60.83;94577.22;5010558;28;20228;-71
2022/09/02 02:16:01;;;;;;;5.30;4.80;;;;;;;20.66;61.13;94568.25;5007739;28;20595;-73
2022/09/02 02:18:26;;;;;;;5.30;4.90;;;;;;;20.67;60.92;94575.22;5012629;28;20222;-73
2022/09/02 02:20:52;;;;;;;4.85;4.43;;;;;;;20.66;60.79;94578.09;5011836;28;20703;-73
2022/09/02 02:23:18;;;;;;;4.65;4.35;;;;;;;20.73;60.85;94578.03;5015310;28;20210;-73
2022/09/02 02:25:43;;;;;;;5.18;4.78;;;;;;;20.66;60.78;94581.59;5011879;28;20202;-73
2022/09/02 02:28:09;;;;;;;5.20;4.80;;;;;;;20.71;60.79;94580.91;5008574;28;20223;-74
2022/09/02 02:30:35;;;;;;;5.45;4.95;;;;;;;20.61;61.19;94589.47;5007792;28;20222;-72
2022/09/02 02:33:00;;;;;;;5.07;4.68;;;;;;;20.57;61.69;94584.81;5005113;28;20219;-74
2022/09/02 02:35:26;;;;;;;4.88;4.47;;;;;;;20.56;61.59;94594.69;5009627;28;20219;-74
2022/09/02 02:37:52;;;;;;;4.95;4.65;;;;;;;20.56;61.55;94592.00;5008851;28;20221;-74
2022/09/02 02:40:21;;;;;;;5.88;5.00;;;;;;;20.65;61.50;94595.19;5006909;28;20269;-73
2022/09/02 02:42:54;;;;;;;4.55;4.22;;;;;;;20.66;61.56;94594.13;5025215;28;20581;-73
2022/09/02 02:45:20;;;;;;;5.25;4.90;;;;;;;20.64;62.00;94601.56;5009061;28;20246;-73
2022/09/02 02:47:46;;;;;;;5.13;4.72;;;;;;;20.66;61.90;94596.81;5006860;28;20237;-73
2022/09/02 02:50:14;;;;;;;4.95;4.53;;;;;;;20.65;62.20;94597.84;4999571;28;20206;-73
2022/09/02 02:52:40;;;;;;;6.05;5.55;;;;;;;20.64;62.20;94598.91;5010719;28;20207;-73
2022/09/02 02:55:08;;;;;;;6.00;5.50;;;;;;;20.59;62.55;94598.75;5010387;28;20753;-73
2022/09/02 02:57:34;;;;;;;5.38;4.93;;;;;;;20.61;62.63;94589.47;5007648;28;20235;-73
2022/09/02 03:00:22;;;;;;;5.32;4.93;;;;;;;20.62;62.58;94588.44;5009558;28;20529;-73
2022/09/02 03:02:48;;;;;;;5.47;4.97;;;;;;;20.62;62.52;94591.09;5008653;28;20358;-73
2022/09/02 03:05:15;;;;;;;4.93;4.43;;;;;;;20.57;62.92;94600.81;5009471;28;20285;-74
2022/09/02 03:07:40;;;;;;;5.30;4.90;;;;;;;20.60;62.96;94601.19;5011500;28;20236;-73
2022/09/02 03:10:08;;;;;;;5.82;5.32;;;;;;;20.55;63.15;94597.56;5025235;28;20227;-73
2022/09/02 03:12:36;;;;;;;6.15;5.65;;;;;;;20.48;63.52;94592.28;5009098;28;20226;-73
2022/09/02 03:15:01;;;;;;;6.18;5.63;;;;;;;20.43;63.92;94589.47;5011175;28;20719;-74
2022/09/02 03:17:27;;;;;;;5.85;5.35;;;;;;;20.40;64.16;94596.06;5005459;28;20348;-74
2022/09/02 03:19:53;;;;;;;6.95;6.45;;;;;;;20.22;65.07;94593.38;5010051;28;20246;-73
2022/09/02 03:22:18;;;;;;;7.50;6.90;;;;;;;20.21;65.35;94592.56;5011450;28;20241;-73
2022/09/02 03:24:44;;;;;;;8.82;8.02;;;;;;;20.25;65.56;94588.41;5011769;28;20688;-74
2022/09/02 03:27:10;;;;;;;8.18;7.50;;;;;;;20.26;65.96;94595.41;5009965;28;20210;-74
2022/09/02 03:29:35;;;;;;;8.05;7.43;;;;;;;20.27;65.64;94591.69;5010108;28;20230;-72
2022/09/02 03:32:01;;;;;;;8.38;7.78;;;;;;;20.30;65.77;94586.94;5018221;28;20230;-74
2022/09/02 03:34:27;;;;;;;9.20;8.50;;;;;;;20.28;65.92;94589.81;5001599;28;20220;-73
2022/09/02 03:36:52;;;;;;;8.93;8.25;;;;;;;20.25;65.89;94588.41;4991708;28;20224;-73
2022/09/02 03:39:19;;;;;;;9.00;8.13;;;;;;;20.26;65.88;94598.06;5007201;28;20261;-73
2022/09/02 03:41:44;;;;;;;9.68;8.88;;;;;;;20.23;66.10;94600.34;5008752;28;20590;-74
2022/09/02 03:44:10;;;;;;;9.75;8.95;;;;;;;20.24;65.98;94597.47;5008014;28;20978;-75
2022/09/02 03:46:36;;;;;;;9.75;9.05;;;;;;;20.05;66.65;94609.16;5010343;28;20246;-73
2022/09/02 03:49:02;;;;;;;10.15;9.43;;;;;;;19.90;67.29;94616.69;5012262;28;20257;-74
2022/09/02 03:51:28;;;;;;;9.88;8.90;;;;;;;20.00;66.74;94625.84;5010239;28;20298;-74
2022/09/02 03:53:54;;;;;;;10.25;9.55;;;;;;;19.86;67.31;94626.16;5011143;28;20286;-74
2022/09/02 03:56:20;;;;;;;11.13;10.23;;;;;;;20.09;66.48;94630.88;5021045;28;20580;-74
2022/09/02 03:58:48;;;;;;;9.88;9.13;;;;;;;20.03;66.51;94632.59;5010895;28;20218;-74
2022/09/02 04:01:20;;;;;;;10.45;9.65;;;;;;;19.80;67.58;94639.34;5013678;28;20222;-74
2022/09/02 04:03:45;;;;;;;10.77;9.45;;;;;;;19.89;67.25;94634.56;5011592;28;20231;-74
2022/09/02 04:06:13;;;;;;;10.88;9.90;;;;;;;19.86;67.54;94642.16;5010073;28;20233;-74
2022/09/02 04:08:44;;;;;;;10.75;9.95;;;;;;;19.84;67.65;94642.41;5010265;28;20917;-73
2022/09/02 04:11:16;;;;;;;10.98;10.07;;;;;;;19.96;67.50;94643.31;5024724;28;20226;-74
2022/09/02 04:13:43;;;;;;;10.77;9.95;;;;;;;19.90;67.97;94649.53;5007036;28;20253;-74
2022/09/02 04:16:12;;;;;;;10.40;9.60;;;;;;;19.94;68.11;94656.06;5006594;28;20222;-74
2022/09/02 04:18:38;;;;;;;11.02;10.18;;;;;;;19.97;67.74;94655.63;5012118;28;20195;-73
2022/09/02 04:21:03;;;;;;;11.15;10.15;;;;;;;20.09;67.42;94658.38;5008591;28;20778;-75
2022/09/02 04:23:30;;;;;;;10.43;9.63;;;;;;;20.16;66.93;94659.16;5012150;28;20222;-74
2022/09/02 04:25:56;;;;;;;11.27;10.27;;;;;;;20.28;66.41;94661.91;5012221;28;20360;-74
2022/09/02 04:28:21;;;;;;;11.13;10.20;;;;;;;20.16;66.91;94658.34;5010209;28;20722;-68
2022/09/02 04:30:47;;;;;;;10.98;10.15;;;;;;;20.06;67.23;94658.81;5012013;28;20217;-70
2022/09/02 04:33:13;;;;;;;11.48;10.57;;;;;;;20.05;67.54;94662.53;5006364;28;20241;-72
2022/09/02 04:35:42;;;;;;;11.30;10.25;;;;;;;20.03;67.28;94664.59;5001798;28;20829;-69
2022/09/02 04:38:09;;;;;;;11.68;10.60;;;;;;;20.01;67.81;94664.00;5004993;28;20221;-69
2022/09/02 04:40:35;;;;;;;11.68;10.50;;;;;;;20.07;67.55;94673.78;5005302;28;20758;-64
2022/09/02 04:43:00;;;;;;;10.75;9.93;;;;;;;19.98;67.80;94678.59;5006520;28;20216;-70
2022/09/02 04:45:26;;;;;;;11.10;10.20;;;;;;;20.01;67.69;94674.69;5006314;28;20207;-70
2022/09/02 04:47:51;;;;;;;10.98;10.07;;;;;;;20.01;67.74;94672.00;5005863;28;20204;-68
2022/09/02 04:50:17;;;;;;;11.15;10.30;;;;;;;19.95;67.88;94680.91;5008687;28;20233;-69
2022/09/02 04:52:42;;;;;;;11.48;10.48;;;;;;;20.00;67.38;94683.72;5011486;28;20581;-68
2022/09/02 04:55:09;;;;;;;11.10;10.13;;;;;;;19.99;67.35;94682.06;5005744;28;20272;-70
2022/09/02 04:57:35;;;;;;;11.30;10.25;;;;;;;20.06;67.03;94674.84;5007880;28;20761;-69
2022/09/02 05:00:04;;;;;;;12.13;9.95;;;;;;;20.00;67.36;94668.53;5006413;28;20198;-69
2022/09/02 05:02:29;;;;;;;11.57;10.57;;;;;;;20.06;67.33;94685.53;5006866;28;20226;-69
2022/09/02 05:04:54;;;;;;;11.48;10.52;;;;;;;20.07;67.17;94671.13;5007576;28;20289;-70
2022/09/02 05:07:20;;;;;;;10.30;9.27;;;;;;;20.04;67.29;94679.56;5008258;28;20218;-66
2022/09/02 05:09:45;;;;;;;11.55;10.05;;;;;;;20.09;67.53;94677.06;5007146;28;20230;-72
2022/09/02 05:12:11;;;;;;;10.55;9.65;;;;;;;20.09;66.94;94677.06;5009628;28;20202;-68
2022/09/02 05:14:36;;;;;;;10.45;9.60;;;;;;;20.13;66.95;94682.78;5004148;28;20222;-64
2022/09/02 05:17:03;;;;;;;10.05;9.23;;;;;;;20.17;66.69;94684.78;5005250;28;20244;-64
2022/09/02 05:19:29;;;;;;;11.55;9.50;;;;;;;20.12;67.48;94684.63;5015879;28;20247;-72
2022/09/02 05:21:57;;;;;;;13.57;9.65;;;;;;;20.04;68.73;94688.41;5010064;28;21399;-69
2022/09/02 05:24:24;;;;;;;14.70;13.40;;;;;;;19.89;70.22;94687.09;5011150;28;20233;-72
2022/09/02 05:26:49;;;;;;;12.88;11.77;;;;;;;20.07;69.49;94683.66;5010194;28;20217;-66
2022/09/02 05:29:19;;;;;;;11.43;10.48;;;;;;;20.05;69.84;94687.38;5012308;28;20227;-66
2022/09/02 05:31:45;;;;;;;12.13;11.02;;;;;;;20.16;68.63;94690.38;5013054;28;20293;-66
2022/09/02 05:34:10;;;;;;;11.82;10.75;;;;;;;19.99;69.53;94685.59;5010434;28;20294;-69
2022/09/02 05:36:36;;;;;;;12.68;11.57;;;;;;;20.16;69.51;94693.03;5010384;28;20260;-69
2022/09/02 05:39:03;;;;;;;12.25;11.18;;;;;;;20.13;70.47;94693.44;5011673;28;20564;-70
2022/09/02 05:41:29;;;;;;;12.52;11.43;;;;;;;20.30;68.77;94686.53;5014309;28;20215;-70
2022/09/02 05:43:57;;;;;;;13.85;12.65;;;;;;;20.24;69.13;94693.56;5007555;28;20219;-65
2022/09/02 05:46:24;;;;;;;12.73;11.63;;;;;;;20.30;69.85;94685.72;5007671;28;20288;-70
2022/09/02 05:49:07;;;;;;;11.60;10.57;;;;;;;20.33;68.97;94680.75;5012165;28;20704;-66
2022/09/02 05:51:39;;;;;;;10.98;9.98;;;;;;;20.37;68.46;94692.63;5004795;28;20207;-70
2022/09/02 05:54:05;;;;;;;9.90;9.10;;;;;;;20.14;67.63;94681.75;5011723;28;20587;-68
2022/09/02 05:56:30;;;;;;;9.80;8.73;;;;;;;20.26;67.34;94677.31;5018332;28;20712;-72
2022/09/02 05:58:57;;;;;;;9.57;8.88;;;;;;;20.23;66.97;94675.94;5009551;28;20253;-67
2022/09/02 06:01:24;;;;;;;10.15;9.20;;;;;;;20.37;67.92;94676.63;5008325;28;20226;-72
2022/09/02 06:03:51;;;;;;;10.07;9.07;;;;;;;20.59;67.36;94678.88;5010964;28;20813;-71
2022/09/02 06:06:17;;;;;;;10.88;9.98;;;;;;;20.60;68.47;94675.16;5013736;28;20206;-65
2022/09/02 06:08:43;;;;;;;10.52;9.63;;;;;;;20.59;68.14;94685.03;5009668;28;20269;-75
2022/09/02 06:11:10;;;;;;;10.48;9.68;;;;;;;20.62;68.61;94684.59;5010919;28;20314;-69
2022/09/02 06:13:38;;;;;;;11.50;10.50;;;;;;;20.40;70.22;94686.84;5002741;28;20660;-70
2022/09/02 06:16:05;;;;;;;13.23;11.50;;;;;;;20.60;69.91;94681.31;5006302;28;20289;-73
2022/09/02 06:18:31;;;;;;;12.30;11.20;;;;;;;20.56;69.57;94684.69;5007506;28;20223;-71
2022/09/02 06:20:56;;;;;;;13.15;12.10;;;;;;;20.68;69.54;94677.53;5008824;28;20249;-72
2022/09/02 06:23:22;;;;;;;13.32;12.30;;;;;;;20.76;69.53;94679.09;5011398;28;20207;-70
2022/09/02 06:25:49;;;;;;;14.05;12.75;;;;;;;20.79;69.43;94684.00;5011707;28;20280;-70
2022/09/02 06:28:15;;;;;;;14.57;13.38;;;;;;;20.67;69.81;94684.75;5006694;28;20234;-74
2022/09/02 06:30:43;;;;;;;15.15;13.95;;;;;;;20.72;69.90;94692.09;5007254;28;20202;-67
2022/09/02 06:33:09;;;;;;;12.93;11.93;;;;;;;20.85;68.72;94683.94;5007082;28;20226;-71
2022/09/02 06:35:37;;;;;;;12.35;11.30;;;;;;;20.93;67.38;94691.66;5005202;28;20214;-71
2022/09/02 06:38:03;;;;;;;12.75;11.68;;;;;;;21.08;67.04;94693.91;4994377;28;20213;-72
2022/09/02 06:40:29;;;;;;;11.95;11.05;;;;;;;21.02;67.52;94697.50;4996501;28;20195;-68
2022/09/02 06:42:55;;;;;;;12.15;10.98;;;;;;;20.93;67.60;94690.84;4999372;28;20222;-70
2022/09/02 06:45:23;;;;;;;11.85;10.85;;;;;;;20.84;69.02;94692.97;4995982;28;20218;-71
2022/09/02 06:47:48;;;;;;;11.50;10.63;;;;;;;20.91;69.10;94703.59;4999181;28;20215;-73
2022/09/02 06:50:14;;;;;;;11.57;10.70;;;;;;;21.01;68.27;94703.91;4998182;28;20238;-63
2022/09/02 06:52:39;;;;;;;11.60;10.43;;;;;;;21.04;67.74;94706.13;5004732;28;20198;-72
2022/09/02 06:55:05;;;;;;;11.77;10.88;;;;;;;21.01;67.67;94705.72;4996657;28;20214;-71
2022/09/02 06:57:32;;;;;;;12.82;11.73;;;;;;;20.97;67.55;94697.34;5001181;28;20605;-71
2022/09/02 06:59:57;;;;;;;12.07;10.98;;;;;;;20.95;67.48;94704.78;5000256;28;20223;-68
2022/09/02 07:02:23;;;;;;;11.23;10.18;;;;;;;21.05;66.85;94709.59;5001498;28;20211;-64
2022/09/02 07:07:37;;;;;;;10.60;9.63;;;;;;;20.79;67.20;94716.88;4998367;28;20230;-63
2022/09/02 07:10:06;;;;;;;11.00;10.00;;;;;;;20.65;67.49;94716.19;5002481;28;20219;-70
2022/09/02 07:12:34;;;;;;;11.80;10.85;;;;;;;20.83;67.78;94719.94;5003260;28;20269;-68
2022/09/02 07:14:59;;;;;;;12.00;11.00;;;;;;;21.03;68.69;94722.38;5007865;28;20288;-69
2022/09/02 07:17:25;;;;;;;12.93;11.77;;;;;;;21.17;69.10;94720.34;5007779;28;20553;-69
2022/09/02 07:19:51;;;;;;;12.88;11.68;;;;;;;21.32;67.49;94715.44;5005733;28;21056;-69
2022/09/02 07:22:16;;;;;;;12.63;11.60;;;;;;;20.99;68.28;94721.19;5001953;28;20230;-68
2022/09/02 07:24:42;;;;;;;13.38;12.23;;;;;;;21.20;67.58;94722.56;5008179;28;20987;-68
2022/09/02 07:27:08;;;;;;;12.80;11.57;;;;;;;21.32;67.97;94720.78;5005159;28;20222;-68
2022/09/02 07:29:34;;;;;;;12.93;11.73;;;;;;;21.51;67.76;94729.63;5006470;28;20226;-67
2022/09/02 07:32:01;;;;;;;11.75;10.73;;;;;;;21.56;67.26;94727.06;5010840;28;20783;-67
2022/09/02 07:34:26;;;;;;;12.38;11.38;;;;;;;21.62;66.26;94722.66;5007175;28;20576;-67
2022/09/02 07:36:52;;;;;;;13.23;12.05;;;;;;;21.69;65.76;94723.41;5007128;28;20223;-68
2022/09/02 07:39:18;;;;;;;12.25;11.25;;;;;;;21.65;65.72;94719.53;5006270;28;20221;-71
2022/09/02 07:41:50;;;;;;;12.23;11.05;;;;;;;21.57;65.88;94720.66;5000310;28;20219;-71
2022/09/02 07:44:16;;;;;;;12.10;11.07;;;;;;;21.69;66.34;94731.44;5009468;28;20230;-70
2022/09/02 07:46:42;;;;;;;11.43;10.43;;;;;;;21.67;65.49;94720.94;5006095;28;20213;-69
2022/09/02 07:49:10;;;;;;;11.30;10.25;;;;;;;21.77;66.08;94723.88;5007618;28;20228;-69
2022/09/02 07:51:39;;;;;;;11.63;10.60;;;;;;;21.98;65.81;94722.53;5007875;28;20234;-69
2022/09/02 07:54:06;;;;;;;11.38;10.27;;;;;;;22.12;64.37;94722.34;5008089;28;20218;-67
2022/09/02 07:56:31;;;;;;;11.13;10.07;;;;;;;22.07;64.57;94723.03;5007571;28;20604;-67
2022/09/02 07:58:57;;;;;;;11.93;10.93;;;;;;;22.00;65.38;94725.81;5008215;28;20206;-67
2022/09/02 08:01:25;;;;;;;11.10;10.25;;;;;;;21.96;64.21;94727.31;5010750;28;20206;-69
2022/09/02 08:03:51;;;;;;;12.15;11.15;;;;;;;21.76;64.34;94740.19;5006658;28;20237;-68
2022/09/02 08:06:16;;;;;;;10.90;9.95;;;;;;;21.67;63.82;94733.50;5010912;28;20221;-68
2022/09/02 08:08:42;;;;;;;10.13;9.23;;;;;;;21.82;63.41;94743.81;5011057;28;20222;-68
2022/09/02 08:11:08;;;;;;;10.52;9.52;;;;;;;21.89;64.23;94740.00;5008030;28;20298;-68
2022/09/02 08:13:36;;;;;;;9.70;9.00;;;;;;;21.79;64.57;94742.41;5006931;28;20218;-68
2022/09/02 08:16:03;;;;;;;9.05;8.35;;;;;;;21.81;64.34;94753.69;5002511;28;20558;-67
2022/09/02 08:18:30;;;;;;;10.05;9.18;;;;;;;21.86;63.26;94744.97;5017234;28;20227;-69
2022/09/02 08:20:56;;;;;;;9.65;8.82;;;;;;;21.64;64.30;94742.81;5003786;28;20228;-69
2022/09/02 08:23:22;;;;;;;8.80;8.10;;;;;;;21.58;65.21;94744.53;5009101;28;20229;-68
2022/09/02 08:25:47;;;;;;;8.70;8.00;;;;;;;21.55;63.34;94742.31;5009360;28;20218;-67
2022/09/02 08:28:13;;;;;;;9.05;8.35;;;;;;;21.59;62.61;94748.03;5005115;28;20223;-67
2022/09/02 08:30:38;;;;;;;9.57;8.77;;;;;;;21.67;63.13;94739.66;5009322;28;20234;-68
2022/09/02 08:33:04;;;;;;;9.13;8.38;;;;;;;21.67;62.85;94731.66;5005082;28;20223;-69
2022/09/02 08:35:30;;;;;;;9.20;8.43;;;;;;;21.53;64.25;94746.25;5006746;28;20223;-68
2022/09/02 08:37:58;;;;;;;10.38;9.45;;;;;;;21.47;63.01;94741.81;5010530;28;20835;-68
2022/09/02 08:40:33;;;;;;;9.18;8.40;;;;;;;21.47;63.73;94741.81;5011313;28;20195;-68
2022/09/02 08:43:00;;;;;;;8.60;7.80;;;;;;;21.11;64.36;94749.59;5004486;28;20226;-68
2022/09/02 08:45:31;;;;;;;8.60;7.90;;;;;;;21.25;64.44;94747.63;5009084;28;20241;-67
2022/09/02 08:48:20;;;;;;;8.13;7.43;;;;;;;21.13;64.23;94736.84;4999981;28;20235;-67
2022/09/02 08:50:52;;;;;;;10.02;9.23;;;;;;;21.17;63.61;94737.22;5006152;28;20250;-69
2022/09/02 08:53:45;;;;;;;9.63;8.73;;;;;;;21.15;62.86;94732.09;5009022;28;21009;-68
2022/09/02 08:56:14;;;;;;;9.88;9.07;;;;;;;21.43;62.78;94732.59;5013062;28;20226;-68
2022/09/02 08:58:43;;;;;;;10.27;9.35;;;;;;;21.71;62.52;94729.34;5001629;28;20684;-70
2022/09/02 09:01:17;;;;;;;10.32;9.50;;;;;;;21.90;61.70;94730.91;5013427;28;20230;-67
2022/09/02 09:04:20;;;;;;;10.02;9.07;;;;;;;21.84;61.16;94734.50;5010283;28;20231;-68
2022/09/02 09:07:04;;;;;;;10.68;9.77;;;;;;;22.09;59.56;94731.66;5005559;28;20243;-68
2022/09/02 09:09:38;;;;;;;10.07;8.98;;;;;;;22.12;59.38;94725.81;5014667;28;20301;-68
2022/09/02 09:12:12;;;;;;;10.45;9.55;;;;;;;22.17;59.89;94728.63;5011702;28;20238;-68
2022/09/02 09:15:04;;;;;;;9.40;8.63;;;;;;;22.27;59.27;94714.72;5003924;28;20223;-69
2022/09/02 09:17:41;;;;;;;11.75;10.65;;;;;;;22.38;59.95;94723.81;5012389;28;20215;-68
2022/09/02 09:20:14;;;;;;;11.02;10.13;;;;;;;22.61;59.43;94715.78;5009842;28;20237;-69
2022/09/02 09:22:42;;;;;;;12.10;10.75;;;;;;;22.78;58.77;94717.72;5008876;28;20262;-69
2022/09/02 09:25:14;;;;;;;11.30;10.30;;;;;;;23.01;58.26;94722.25;5007612;28;20230;-69
2022/09/02 09:27:40;;;;;;;11.13;10.23;;;;;;;22.95;57.90;94717.81;5009628;28;20234;-69
2022/09/02 09:30:08;;;;;;;11.60;10.48;;;;;;;23.44;55.84;94720.97;5012399;28;20226;-67
2022/09/02 09:32:41;;;;;;;10.57;9.75;;;;;;;23.18;56.41;94708.94;5009100;28;20224;-69
2022/09/02 09:35:12;;;;;;;13.25;12.13;;;;;;;23.60;56.31;94709.47;5009454;28;20206;-68
2022/09/02 09:37:39;;;;;;;11.68;10.70;;;;;;;23.90;56.17;94716.50;5010685;28;20746;-69
2022/09/02 09:40:17;;;;;;;10.98;9.93;;;;;;;24.19;54.68;94704.63;5009943;28;20246;-70
2022/09/02 09:42:43;;;;;;;11.73;10.63;;;;;;;24.25;54.00;94704.72;5011676;28;20276;-72
2022/09/02 09:45:25;;;;;;;13.75;11.23;;;;;;;24.15;53.94;94697.28;5012758;28;20226;-74
2022/09/02 09:48:15;;;;;;;10.93;10.05;;;;;;;24.25;53.51;94696.66;5006949;28;20266;-71
2022/09/02 09:51:08;;;;;;;10.57;9.68;;;;;;;24.35;53.37;94696.78;5009214;28;20309;-73
2022/09/02 09:53:35;;;;;;;11.10;10.18;;;;;;;24.40;52.62;94689.66;5012629;28;20268;-72
2022/09/02 09:56:14;;;;;;;10.98;10.02;;;;;;;24.13;53.75;94710.16;5006440;28;20274;-72
2022/09/02 09:58:39;;;;;;;12.20;10.90;;;;;;;24.03;53.25;94701.91;5005295;28;20262;-72
2022/09/02 10:01:19;;;;;;;11.65;10.70;;;;;;;23.56;54.51;94717.19;5008998;28;20281;-73
2022/09/02 10:03:51;;;;;;;12.52;11.20;;;;;;;23.61;55.51;94711.13;5006698;28;20231;-72
2022/09/02 10:06:36;;;;;;;12.73;11.73;;;;;;;23.59;55.71;94710.53;5005604;28;20224;-73
2022/09/02 10:09:24;;;;;;;10.45;9.50;;;;;;;23.59;54.85;94715.09;5010213;28;20221;-73
2022/09/02 10:12:05;;;;;;;12.07;10.93;;;;;;;23.55;55.22;94715.56;5003680;28;20218;-72
2022/09/02 10:14:38;;;;;;;16.65;11.73;;;;;;;22.98;55.51;94709.31;5002616;28;20218;-72
2022/09/02 10:17:24;;;;;;;12.68;11.57;;;;;;;23.14;56.53;94710.47;5009913;28;20206;-71
2022/09/02 10:19:49;;;;;;;13.00;11.90;;;;;;;23.45;55.93;94711.88;4999848;28;20293;-71
2022/09/02 10:22:31;;;;;;;12.18;10.98;;;;;;;23.43;55.56;94714.78;5012509;28;20269;-73
2022/09/02 10:25:19;;;;;;;11.60;10.50;;;;;;;23.67;53.77;94701.28;5005949;28;20333;-73
2022/09/02 10:28:06;;;;;;;12.05;11.05;;;;;;;23.38;54.64;94703.97;5012490;28;20254;-73
2022/09/02 10:30:55;;;;;;;11.68;10.68;;;;;;;24.07;53.61;94703.06;5009158;28;20238;-72
2022/09/02 10:33:59;;;;;;;11.85;10.85;;;;;;;23.93;53.93;94699.91;5006500;28;20230;-74
2022/09/02 10:36:49;;;;;;;12.52;11.30;;;;;;;24.20;53.51;94700.06;5005248;28;20218;-74
2022/09/02 10:40:00;;;;;;;12.70;11.57;;;;;;;24.04;54.09;94707.06;5003617;28;20226;-75
2022/09/02 10:42:47;;;;;;;12.27;11.05;;;;;;;24.23;54.04;94709.50;5007752;28;20245;-74
2022/09/02 10:45:28;;;;;;;12.75;11.65;;;;;;;24.56;53.30;94698.75;5001237;28;20225;-73
2022/09/02 10:48:02;;;;;;;12.35;11.20;;;;;;;24.71;52.67;94705.44;5010453;28;20234;-74
2022/09/02 10:50:54;;;;;;;12.65;11.45;;;;;;;25.01;50.62;94700.44;5019853;28;20287;-66
2022/09/02 10:53:26;;;;;;;12.95;11.88;;;;;;;25.03;50.19;94701.00;5002337;28;20223;-66
2022/09/02 10:56:07;;;;;;;12.93;11.82;;;;;;;25.20;49.21;94702.84;5007298;28;20198;-69
2022/09/02 10:59:07;;;;;;;13.18;12.00;;;;;;;24.56;50.19;94706.81;5007668;28;20242;-73
2022/09/02 11:01:51;;;;;;;13.25;12.25;;;;;;;24.25;51.18;94699.34;5005938;28;20230;-68
2022/09/02 11:04:58;;;;;;;13.05;12.02;;;;;;;24.53;51.04;94704.63;5002519;28;20584;-66
2022/09/02 11:07:35;;;;;;;14.15;12.95;;;;;;;25.23;49.06;94692.44;5023035;28;20227;-73
2022/09/02 11:10:19;;;;;;;12.70;11.48;;;;;;;26.25;46.06;94684.56;5011255;28;20356;-73
2022/09/02 11:12:54;;;;;;;13.60;12.30;;;;;;;26.68;46.62;94688.13;4997942;28;20230;-69
2022/09/02 11:15:31;;;;;;;12.93;11.73;;;;;;;27.20;45.77;94691.91;5002398;28;20309;-68
2022/09/02 11:18:23;;;;;;;11.90;10.88;;;;;;;27.76;43.98;94688.56;5004455;28;20242;-70
2022/09/02 11:21:20;;;;;;;13.80;12.60;;;;;;;27.24;44.09;94690.31;5005465;28;20227;-64
2022/09/02 11:23:56;;;;;;;12.27;11.27;;;;;;;27.44;43.52;94692.25;5009139;28;20659;-70
2022/09/02 11:26:40;;;;;;;15.60;12.35;;;;;;;27.23;43.29;94678.69;5003243;28;20315;-69
2022/09/02 11:29:15;;;;;;;13.30;12.10;;;;;;;27.77;42.40;94682.88;5009432;28;20227;-69
2022/09/02 11:31:42;;;;;;;13.07;12.07;;;;;;;28.26;41.85;94676.22;5009367;28;20201;-64
2022/09/02 11:34:33;;;;;;;12.77;11.77;;;;;;;27.53;43.75;94682.56;5010587;28;20223;-64
2022/09/02 11:37:02;;;;;;;13.63;12.43;;;;;;;28.08;41.72;94669.44;5006795;28;20215;-64